createdAt,value
2022-09-18T00:10:09.103Z,3.25
2022-09-18T02:05:42.523Z,5.68
2022-09-18T03:07:56.782Z,5.22
2022-09-18T03:32:55.728Z,4.60
2022-09-18T04:38:35.758Z,7.82
2022-09-18T04:41:03.323Z,8.68
2022-09-18T04:43:33.972Z,8.60
2022-09-18T04:46:01.664Z,8.52
2022-09-18T04:48:29.902Z,10.32
2022-09-18T04:51:00.328Z,11.15
2022-09-18T04:53:28.376Z,10.93
2022-09-18T04:55:57.419Z,10.80
2022-09-18T04:58:24.929Z,10.52
2022-09-18T05:00:59.414Z,8.35
2022-09-18T05:03:26.827Z,6.75
2022-09-18T05:05:55.180Z,4.95
2022-09-18T05:08:23.290Z,6.15
2022-09-18T05:10:55.150Z,7.03
2022-09-18T05:13:24.030Z,6.50
2022-09-18T05:16:14.405Z,5.80
2022-09-18T05:18:43.800Z,5.88
2022-09-18T05:21:14.440Z,5.82
2022-09-18T05:23:45.158Z,5.80
2022-09-18T05:26:13.152Z,5.53
2022-09-18T05:28:40.995Z,4.80
2022-09-18T05:31:09.903Z,4.93
2022-09-18T05:33:43.069Z,4.88
2022-09-18T05:36:10.907Z,4.80
2022-09-18T05:38:38.664Z,4.88
2022-09-18T05:41:09.196Z,4.78
2022-09-18T05:43:36.718Z,4.43
2022-09-18T05:46:08.148Z,4.47
2022-09-18T05:48:50.145Z,3.92
2022-09-18T05:51:17.840Z,3.53
2022-09-18T05:53:48.648Z,3.83
2022-09-18T05:56:29.247Z,3.70
2022-09-18T05:58:56.998Z,4.03
2022-09-18T06:01:24.928Z,3.90
2022-09-18T06:06:50.462Z,4.07
2022-09-18T06:09:17.910Z,4.05
2022-09-18T06:11:45.414Z,4.20
2022-09-18T06:14:15.269Z,4.55
2022-09-18T06:16:42.923Z,4.40
2022-09-18T06:19:13.051Z,4.00
2022-09-18T06:21:43.172Z,3.78
2022-09-18T06:24:13.761Z,3.63
2022-09-18T06:27:00.004Z,4.10
2022-09-18T06:29:28.020Z,3.88
2022-09-18T06:32:01.661Z,3.92
2022-09-18T06:34:29.228Z,4.05
2022-09-18T06:37:04.538Z,4.30
2022-09-18T06:39:39.795Z,3.70
2022-09-18T06:42:07.617Z,3.60
2022-09-18T06:45:04.607Z,3.20
2022-09-18T06:47:32.725Z,4.07
2022-09-18T06:50:00.217Z,3.95
2022-09-18T06:52:28.906Z,3.85
2022-09-18T06:54:58.872Z,2.97
2022-09-18T06:57:32.061Z,2.50
2022-09-18T06:59:59.502Z,2.50
2022-09-18T07:02:29.036Z,2.38
2022-09-18T07:05:00.791Z,2.50
2022-09-18T07:07:28.609Z,2.17
2022-09-18T07:09:56.898Z,2.10
2022-09-18T07:12:29.357Z,1.55
2022-09-18T07:14:57.292Z,2.10
2022-09-18T07:17:27.843Z,2.05
2022-09-18T07:19:57.421Z,1.88
2022-09-18T07:22:35.109Z,2.15
2022-09-18T07:25:05.334Z,1.80
2022-09-18T07:27:33.101Z,1.80
2022-09-18T07:30:00.919Z,1.83
2022-09-18T07:32:28.856Z,2.20
2022-09-18T07:35:18.803Z,2.08
2022-09-18T07:37:46.445Z,2.20
2022-09-18T07:40:19.214Z,2.42
2022-09-18T07:43:10.165Z,2.13
2022-09-18T07:45:45.070Z,2.20
2022-09-18T07:48:15.868Z,2.30
2022-09-18T07:50:48.672Z,2.83
2022-09-18T07:53:18.546Z,2.53
2022-09-18T07:55:49.203Z,3.05
2022-09-18T07:58:16.635Z,3.05
2022-09-18T08:00:51.082Z,3.00
2022-09-18T08:03:20.379Z,2.60
2022-09-18T08:06:06.998Z,2.67
2022-09-18T08:08:36.373Z,2.65
2022-09-18T08:11:25.527Z,2.40
2022-09-18T08:13:59.791Z,2.15
2022-09-18T08:16:42.794Z,2.20
2022-09-18T08:19:32.126Z,2.00
2022-09-18T08:22:06.482Z,2.35
2022-09-18T08:24:34.175Z,2.20
2022-09-18T08:27:04.668Z,2.00
2022-09-18T08:29:33.957Z,1.90
2022-09-18T08:32:09.882Z,1.90
2022-09-18T08:34:38.475Z,1.67
2022-09-18T08:37:06.379Z,1.85
2022-09-18T08:40:10.674Z,2.03
2022-09-18T08:42:58.478Z,1.83
2022-09-18T08:45:50.683Z,2.10
2022-09-18T08:48:31.035Z,2.38
2022-09-18T08:51:14.168Z,2.40
2022-09-18T08:53:55.020Z,2.22
2022-09-18T08:56:54.822Z,1.83
2022-09-18T08:59:50.452Z,2.20
2022-09-18T09:02:40.581Z,2.10
2022-09-18T09:05:15.605Z,2.42
2022-09-18T09:07:46.504Z,2.13
2022-09-18T09:10:42.993Z,2.47
2022-09-18T09:13:23.073Z,2.20
2022-09-18T09:16:02.486Z,1.90
2022-09-18T09:18:45.771Z,1.92
2022-09-18T09:21:22.148Z,2.00
2022-09-18T09:24:21.317Z,2.00
2022-09-18T09:27:34.255Z,2.47
2022-09-18T09:30:25.025Z,2.60
2022-09-18T09:33:28.697Z,2.20
2022-09-18T09:36:18.687Z,2.05
2022-09-18T09:38:55.092Z,1.77
2022-09-18T09:41:44.661Z,2.00
2022-09-18T09:44:38.428Z,1.95
2022-09-18T09:47:16.261Z,2.28
2022-09-18T09:50:03.001Z,2.40
2022-09-18T09:52:33.861Z,2.40
2022-09-18T09:55:06.878Z,2.30
2022-09-18T09:57:56.514Z,2.50
2022-09-18T10:00:24.014Z,2.20
2022-09-18T10:03:32.672Z,2.72
2022-09-18T10:06:35.663Z,2.70
2022-09-18T10:09:39.919Z,2.53
2022-09-18T10:12:21.303Z,2.70
2022-09-18T10:14:55.055Z,2.40
2022-09-18T10:17:24.202Z,2.20
2022-09-18T10:19:53.519Z,2.08
2022-09-18T10:22:23.355Z,2.63
2022-09-18T10:24:58.839Z,2.40
2022-09-18T10:27:27.273Z,2.50
2022-09-18T10:29:54.671Z,2.13
2022-09-18T10:32:35.571Z,2.30
2022-09-18T10:35:30.934Z,2.28
2022-09-18T10:37:59.450Z,2.20
2022-09-18T10:40:38.427Z,2.22
2022-09-18T10:43:18.509Z,2.20
2022-09-18T10:45:54.550Z,2.40
2022-09-18T10:48:33.356Z,2.10
2022-09-18T10:51:02.397Z,2.40
2022-09-18T10:53:42.578Z,2.58
2022-09-18T10:56:21.185Z,2.33
2022-09-18T10:58:51.996Z,2.40
2022-09-18T11:01:20.190Z,2.10
2022-09-18T11:04:02.881Z,2.30
2022-09-18T11:06:36.340Z,2.42
2022-09-18T11:09:31.361Z,1.70
2022-09-18T11:11:59.612Z,1.90
2022-09-18T11:14:39.742Z,1.77
2022-09-18T11:17:29.239Z,1.50
2022-09-18T11:19:59.816Z,1.50
2022-09-18T11:22:45.849Z,1.70
2022-09-18T11:25:29.125Z,1.60
2022-09-18T11:28:40.517Z,1.65
2022-09-18T11:31:18.475Z,1.70
2022-09-18T11:33:55.178Z,1.30
2022-09-18T11:36:32.663Z,1.70
2022-09-18T11:39:03.812Z,1.60
2022-09-18T11:41:37.131Z,1.60
2022-09-18T11:44:11.266Z,2.00
2022-09-18T11:47:06.582Z,1.67
2022-09-18T11:49:42.391Z,1.60
2022-09-18T11:52:21.480Z,1.42
2022-09-18T11:55:23.526Z,1.80
2022-09-18T11:58:02.903Z,0.70
2022-09-18T12:00:42.543Z,0.98
2022-09-18T12:03:23.100Z,0.88
2022-09-18T12:05:57.925Z,0.70
2022-09-18T12:08:44.247Z,1.10
2022-09-18T12:11:38.835Z,1.50
2022-09-18T12:14:27.541Z,1.52
2022-09-18T12:17:25.243Z,1.40
2022-09-18T12:20:02.506Z,1.63
2022-09-18T12:22:44.534Z,1.33
2022-09-18T12:25:15.916Z,1.75
2022-09-18T12:28:36.103Z,1.50
2022-09-18T12:31:26.303Z,1.80
2022-09-18T12:34:14.645Z,1.40
2022-09-18T12:36:47.312Z,1.70
2022-09-18T12:39:29.576Z,1.60
2022-09-18T12:42:38.785Z,2.00
2022-09-18T12:45:21.046Z,1.80
2022-09-18T12:48:07.007Z,2.13
2022-09-18T12:51:27.075Z,2.15
2022-09-18T12:54:06.889Z,2.10
2022-09-18T12:56:43.101Z,1.90
2022-09-18T12:59:26.886Z,1.90
2022-09-18T13:02:09.485Z,1.95
2022-09-18T13:04:52.463Z,1.85
2022-09-18T13:07:27.151Z,1.83
2022-09-18T13:09:54.806Z,1.83
2022-09-18T13:12:33.848Z,1.80
2022-09-18T13:15:26.072Z,1.88
2022-09-18T13:18:22.461Z,2.20
2022-09-18T13:20:51.634Z,2.08
2022-09-18T13:23:31.686Z,1.88
2022-09-18T13:26:04.472Z,2.30
2022-09-18T13:28:33.366Z,2.40
2022-09-18T13:31:35.028Z,2.20
2022-09-18T13:34:15.746Z,2.33
2022-09-18T13:36:48.535Z,2.13
2022-09-18T13:39:21.535Z,2.40
2022-09-18T13:41:55.479Z,1.77
2022-09-18T13:44:30.771Z,1.80
2022-09-18T13:47:13.123Z,1.55
2022-09-18T13:49:55.788Z,1.30
2022-09-18T13:52:42.018Z,1.52
2022-09-18T13:55:18.105Z,1.15
2022-09-18T13:57:45.604Z,1.30
2022-09-18T14:00:21.632Z,1.10
2022-09-18T14:03:09.251Z,1.00
2022-09-18T14:05:43.353Z,0.95
2022-09-18T14:08:19.877Z,0.93
2022-09-18T14:11:15.109Z,0.82
2022-09-18T14:13:51.852Z,0.80
2022-09-18T14:16:19.901Z,0.80
2022-09-18T14:18:47.534Z,0.70
2022-09-18T14:21:20.604Z,0.85
2022-09-18T14:23:48.108Z,0.80
2022-09-18T14:26:35.093Z,0.90
2022-09-18T14:29:12.135Z,1.02
2022-09-18T14:31:39.656Z,0.90
2022-09-18T14:34:21.650Z,0.63
2022-09-18T14:36:54.729Z,1.00
2022-09-18T14:39:26.579Z,0.70
2022-09-18T14:42:01.298Z,1.10
2022-09-18T14:44:30.512Z,1.20
2022-09-18T14:47:03.641Z,0.73
2022-09-18T14:49:31.145Z,0.80
2022-09-18T14:52:03.973Z,0.80
2022-09-18T14:54:40.456Z,0.88
2022-09-18T14:57:13.878Z,0.70
2022-09-18T14:59:41.412Z,0.68
2022-09-18T15:02:31.471Z,0.55
2022-09-18T15:05:03.344Z,0.50
2022-09-18T15:07:30.778Z,0.50
2022-09-18T15:10:01.407Z,0.47
2022-09-18T15:12:31.596Z,0.40
2022-09-18T15:14:59.113Z,0.40
2022-09-18T15:17:28.337Z,0.47
2022-09-18T15:19:58.295Z,0.50
2022-09-18T15:22:26.666Z,0.40
2022-09-18T15:24:55.172Z,0.50
2022-09-18T15:27:23.708Z,0.40
2022-09-18T15:30:16.653Z,0.35
2022-09-18T15:32:48.233Z,0.47
2022-09-18T15:35:21.787Z,0.43
2022-09-18T15:38:03.282Z,0.30
2022-09-18T15:40:37.333Z,0.50
2022-09-18T15:43:07.512Z,0.30
2022-09-18T15:45:36.357Z,0.35
2022-09-18T15:48:36.723Z,0.50
2022-09-18T15:51:08.433Z,0.35
2022-09-18T15:53:38.628Z,0.40
2022-09-18T15:56:09.355Z,0.50
2022-09-18T15:59:17.783Z,0.60
2022-09-18T16:01:47.731Z,0.50
2022-09-18T16:04:20.114Z,0.60
2022-09-18T16:07:21.557Z,0.60
2022-09-18T16:09:51.965Z,0.73
2022-09-18T16:12:41.911Z,0.50
2022-09-18T16:15:20.276Z,0.60
2022-09-18T16:17:56.626Z,0.50
2022-09-18T16:20:31.028Z,0.55
2022-09-18T16:23:35.761Z,0.80
2022-09-18T16:26:19.391Z,0.60
2022-09-18T16:28:50.374Z,0.60
2022-09-18T16:31:21.543Z,0.80
2022-09-18T16:33:50.755Z,0.50
2022-09-18T16:36:34.827Z,0.70
2022-09-18T16:39:08.698Z,0.60
2022-09-18T16:41:36.543Z,1.35
2022-09-18T16:44:05.407Z,0.60
2022-09-18T16:46:38.322Z,0.73
2022-09-18T16:49:08.572Z,0.80
2022-09-18T16:51:36.351Z,0.70
2022-09-18T16:54:03.933Z,0.60
2022-09-18T16:56:43.758Z,0.88
2022-09-18T16:59:11.335Z,0.52
2022-09-18T17:01:54.223Z,1.27
2022-09-18T17:04:29.968Z,1.63
2022-09-18T17:06:57.661Z,3.08
2022-09-18T17:09:25.390Z,4.13
2022-09-18T17:11:54.311Z,4.68
2022-09-18T17:14:22.785Z,2.63
2022-09-18T17:16:50.500Z,1.60
2022-09-18T17:19:18.118Z,1.50
2022-09-18T17:21:45.512Z,1.02
2022-09-18T17:24:13.109Z,1.30
2022-09-18T17:26:42.271Z,1.40
2022-09-18T17:29:11.388Z,1.20
2022-09-18T17:31:38.835Z,1.10
2022-09-18T17:34:07.379Z,0.77
2022-09-18T17:36:36.863Z,0.90
2022-09-18T17:39:05.229Z,0.88
2022-09-18T17:41:33.644Z,0.93
2022-09-18T17:44:01.260Z,0.75
2022-09-18T17:46:28.674Z,0.90
2022-09-18T17:48:59.741Z,0.80
2022-09-18T17:51:29.110Z,1.05
2022-09-18T17:53:59.280Z,0.85
2022-09-18T17:56:29.952Z,0.93
2022-09-18T17:59:00.123Z,0.93
2022-09-18T18:01:29.661Z,0.80
2022-09-18T18:03:57.902Z,0.80
2022-09-18T18:06:26.052Z,0.80
2022-09-18T18:08:54.004Z,0.98
2022-09-18T18:11:23.350Z,0.95
2022-09-18T18:13:52.167Z,0.95
2022-09-18T18:16:23.474Z,1.17
2022-09-18T18:18:53.696Z,1.10
2022-09-18T18:21:23.795Z,1.00
2022-09-18T18:23:59.546Z,0.90
2022-09-18T18:26:31.080Z,0.75
2022-09-18T18:28:58.538Z,1.00
2022-09-18T18:31:26.285Z,1.00
2022-09-18T18:33:55.163Z,1.20
2022-09-18T18:36:25.922Z,1.00
2022-09-18T18:38:55.355Z,1.20
2022-09-18T18:41:24.684Z,1.15
2022-09-18T18:43:59.550Z,1.20
2022-09-18T18:46:28.941Z,1.00
2022-09-18T18:49:02.784Z,1.00
2022-09-18T18:51:36.167Z,1.13
2022-09-18T18:54:05.564Z,1.40
2022-09-18T18:56:35.697Z,1.10
2022-09-18T18:59:08.101Z,1.50
2022-09-18T19:01:36.108Z,1.20
2022-09-18T19:04:06.796Z,1.40
2022-09-18T19:06:39.125Z,1.30
2022-09-18T19:09:12.246Z,1.00
2022-09-18T19:11:48.189Z,1.35
2022-09-18T19:14:21.541Z,1.60
2022-09-18T19:16:50.411Z,1.20
2022-09-18T19:19:21.341Z,1.25
2022-09-18T19:21:49.306Z,1.35
2022-09-18T19:24:18.784Z,1.23
2022-09-18T19:26:47.578Z,1.40
2022-09-18T19:29:17.423Z,1.30
2022-09-18T19:31:46.576Z,1.52
2022-09-18T19:34:19.647Z,1.67
2022-09-18T19:36:49.133Z,1.80
2022-09-18T19:39:18.256Z,1.95
2022-09-18T19:42:03.386Z,1.60
2022-09-18T19:44:36.320Z,1.95
2022-09-18T19:47:12.533Z,1.52
2022-09-18T19:49:40.473Z,1.50
2022-09-18T19:52:18.232Z,1.58
2022-09-18T19:54:47.800Z,1.52
2022-09-18T19:57:16.052Z,1.63
2022-09-18T19:59:44.083Z,1.65
2022-09-18T20:02:14.934Z,1.40
2022-09-18T20:04:42.535Z,1.30
2022-09-18T20:07:10.797Z,1.23
2022-09-18T20:09:40.263Z,1.58
2022-09-18T20:12:09.341Z,1.40
2022-09-18T20:14:36.890Z,1.33
2022-09-18T20:17:04.403Z,1.20
2022-09-18T20:19:31.941Z,1.17
2022-09-18T20:22:03.074Z,0.90
2022-09-18T20:24:31.930Z,1.20
2022-09-18T20:27:00.512Z,1.00
2022-09-18T20:29:29.131Z,1.00
2022-09-18T20:32:14.309Z,1.10
2022-09-18T20:34:47.744Z,1.15
2022-09-18T20:37:15.518Z,1.30
2022-09-18T20:39:44.212Z,1.02
2022-09-18T20:42:11.920Z,1.00
2022-09-18T20:44:39.359Z,1.13
2022-09-18T20:47:07.092Z,1.20
2022-09-18T20:49:34.699Z,1.15
2022-09-18T20:52:03.704Z,1.00
2022-09-18T20:54:31.103Z,0.90
2022-09-18T20:57:00.480Z,0.93
2022-09-18T20:59:27.877Z,1.00
2022-09-18T21:01:57.084Z,1.02
2022-09-18T21:04:26.687Z,0.90
2022-09-18T21:06:57.531Z,0.90
2022-09-18T21:09:27.277Z,1.10
2022-09-18T21:11:56.836Z,1.10
2022-09-18T21:14:25.608Z,1.17
2022-09-18T21:16:53.611Z,1.00
2022-09-18T21:19:21.313Z,1.00
2022-09-18T21:21:49.231Z,1.00
2022-09-18T21:24:17.578Z,1.20
2022-09-18T21:26:49.919Z,1.20
2022-09-18T21:29:20.663Z,1.00
2022-09-18T21:31:50.587Z,1.02
2022-09-18T21:34:27.082Z,1.20
2022-09-18T21:36:57.767Z,0.85
2022-09-18T21:39:28.305Z,1.10
2022-09-18T21:41:57.712Z,1.02
2022-09-18T21:44:29.989Z,1.10
2022-09-18T21:47:04.381Z,1.00
2022-09-18T21:49:33.866Z,1.00
2022-09-18T21:52:04.641Z,1.00
2022-09-18T21:54:32.988Z,0.80
2022-09-18T21:57:00.746Z,0.80
2022-09-18T21:59:35.480Z,1.00
2022-09-18T22:02:04.869Z,1.20
2022-09-18T22:04:32.864Z,0.93
2022-09-18T22:07:01.646Z,1.10
2022-09-18T22:09:32.473Z,1.02
2022-09-18T22:12:03.598Z,1.10
2022-09-18T22:14:36.080Z,1.10
2022-09-18T22:17:08.487Z,1.10
2022-09-18T22:19:40.534Z,1.10
2022-09-18T22:22:09.070Z,1.00
2022-09-18T22:24:36.474Z,0.88
2022-09-18T22:27:13.927Z,1.08
2022-09-18T22:29:43.441Z,0.98
2022-09-18T22:32:10.909Z,1.20
2022-09-18T22:34:38.643Z,0.98
2022-09-18T22:37:10.800Z,0.90
2022-09-18T22:39:41.892Z,0.95
2022-09-18T22:42:09.347Z,1.00
2022-09-18T22:44:36.828Z,0.95
2022-09-18T22:47:04.847Z,0.90
2022-09-18T22:49:35.658Z,1.10
2022-09-18T22:52:03.168Z,0.90
2022-09-18T22:54:30.850Z,0.90
2022-09-18T22:56:58.267Z,0.98
2022-09-18T22:59:29.156Z,1.10
2022-09-18T23:02:02.383Z,1.02
2022-09-18T23:04:31.988Z,1.00
2022-09-18T23:07:00.508Z,1.08
2022-09-18T23:09:29.610Z,0.80
2022-09-18T23:11:58.452Z,1.15
2022-09-18T23:14:28.478Z,0.80
2022-09-18T23:16:57.484Z,1.00
2022-09-18T23:19:30.768Z,1.00
2022-09-18T23:21:58.697Z,0.80
2022-09-18T23:24:29.185Z,0.93
2022-09-18T23:26:58.391Z,1.10
2022-09-18T23:29:27.583Z,0.90
2022-09-18T23:31:59.177Z,0.90
2022-09-18T23:34:31.834Z,1.05
2022-09-18T23:37:00.962Z,1.23
2022-09-18T23:39:30.913Z,0.80
2022-09-18T23:42:01.594Z,1.00
2022-09-18T23:44:31.269Z,1.00
2022-09-18T23:47:00.325Z,1.08
2022-09-18T23:49:30.756Z,0.70
2022-09-18T23:51:59.672Z,1.20
2022-09-18T23:54:30.110Z,1.00
2022-09-18T23:56:58.162Z,1.10
2022-09-18T23:59:26.512Z,1.00
